createdAt,value
2022-10-17T00:02:16.786Z,15.10
2022-10-17T00:04:45.830Z,15.06
2022-10-17T00:07:13.536Z,15.04
2022-10-17T00:09:43.647Z,14.99
2022-10-17T00:12:11.759Z,14.95
2022-10-17T00:14:39.463Z,14.92
2022-10-17T00:17:07.347Z,14.87
2022-10-17T00:19:34.988Z,14.84
2022-10-17T00:22:04.139Z,14.81
2022-10-17T00:24:31.941Z,14.80
2022-10-17T00:26:59.631Z,14.76
2022-10-17T00:29:27.373Z,14.76
2022-10-17T00:31:56.319Z,14.80
2022-10-17T00:34:24.353Z,14.77
2022-10-17T00:36:52.978Z,14.79
2022-10-17T00:39:22.103Z,14.79
2022-10-17T00:41:49.804Z,14.76
2022-10-17T00:44:54.981Z,14.80
2022-10-17T00:47:23.587Z,14.74
2022-10-17T00:49:51.464Z,14.72
2022-10-17T00:52:22.857Z,14.73
2022-10-17T00:54:57.241Z,14.62
2022-10-17T00:57:25.821Z,14.57
2022-10-17T00:59:58.183Z,14.58
2022-10-17T01:02:26.438Z,14.52
2022-10-17T01:04:55.990Z,14.49
2022-10-17T01:07:24.228Z,14.45
2022-10-17T01:09:53.752Z,14.41
2022-10-17T01:12:25.416Z,14.36
2022-10-17T01:15:09.087Z,14.33
2022-10-17T01:17:50.175Z,14.33
2022-10-17T01:20:53.204Z,14.28
2022-10-17T01:23:38.307Z,14.27
2022-10-17T01:26:17.730Z,14.27
2022-10-17T01:29:06.979Z,14.25
2022-10-17T01:31:39.406Z,14.24
2022-10-17T01:34:12.826Z,14.23
2022-10-17T01:36:47.306Z,14.23
2022-10-17T01:39:21.963Z,14.18
2022-10-17T01:41:56.401Z,14.19
2022-10-17T01:44:33.226Z,14.16
2022-10-17T01:47:06.995Z,14.18
2022-10-17T01:49:36.441Z,14.15
2022-10-17T01:52:07.587Z,14.13
2022-10-17T01:54:42.446Z,14.07
2022-10-17T01:57:24.222Z,14.10
2022-10-17T01:59:54.102Z,14.10
2022-10-17T02:02:24.678Z,14.13
2022-10-17T02:04:55.183Z,14.11
2022-10-17T02:07:22.838Z,14.17
2022-10-17T02:09:50.471Z,14.20
2022-10-17T02:12:34.888Z,14.22
2022-10-17T02:15:29.483Z,14.21
2022-10-17T02:18:16.434Z,14.22
2022-10-17T02:20:51.919Z,14.26
2022-10-17T02:23:27.438Z,14.27
2022-10-17T02:26:04.189Z,14.29
2022-10-17T02:28:38.622Z,14.27
2022-10-17T02:31:14.980Z,14.26
2022-10-17T02:33:51.315Z,14.25
2022-10-17T02:36:23.531Z,14.19
2022-10-17T02:38:53.782Z,14.16
2022-10-17T02:41:24.552Z,14.14
2022-10-17T02:43:57.630Z,14.12
2022-10-17T02:46:29.535Z,14.18
2022-10-17T02:49:02.914Z,14.15
2022-10-17T02:51:37.992Z,14.16
2022-10-17T02:54:10.931Z,14.11
2022-10-17T02:56:43.794Z,14.15
2022-10-17T02:59:15.188Z,14.16
2022-10-17T03:01:44.785Z,14.18
2022-10-17T03:04:15.739Z,14.23
2022-10-17T03:06:44.088Z,14.16
2022-10-17T03:09:11.853Z,14.16
2022-10-17T03:11:39.704Z,14.17
2022-10-17T03:14:08.831Z,14.18
2022-10-17T03:16:37.833Z,14.18
2022-10-17T03:19:06.245Z,14.14
2022-10-17T03:21:37.787Z,14.05
2022-10-17T03:24:07.727Z,14.03
2022-10-17T03:26:35.714Z,13.96
2022-10-17T03:29:04.129Z,13.85
2022-10-17T03:31:33.529Z,13.89
2022-10-17T03:34:03.392Z,13.94
2022-10-17T03:36:31.098Z,13.96
2022-10-17T03:39:00.185Z,13.97
2022-10-17T03:41:28.674Z,13.98
2022-10-17T03:43:56.341Z,13.97
2022-10-17T03:46:25.797Z,13.99
2022-10-17T03:48:55.450Z,14.01
2022-10-17T03:51:23.271Z,13.95
2022-10-17T03:53:55.317Z,13.99
2022-10-17T03:56:25.992Z,13.95
2022-10-17T03:59:05.557Z,13.97
2022-10-17T04:01:36.295Z,13.99
2022-10-17T04:04:04.342Z,14.02
2022-10-17T04:06:35.183Z,13.99
2022-10-17T04:09:03.232Z,14.05
2022-10-17T04:11:43.013Z,14.05
2022-10-17T04:14:11.319Z,14.04
2022-10-17T04:16:40.383Z,14.01
2022-10-17T04:19:14.806Z,13.97
2022-10-17T04:21:46.772Z,13.94
2022-10-17T04:24:15.511Z,13.89
2022-10-17T04:26:53.403Z,13.87
2022-10-17T04:29:23.346Z,13.90
2022-10-17T04:31:53.511Z,13.88
2022-10-17T04:34:26.925Z,13.87
2022-10-17T04:36:54.616Z,13.84
2022-10-17T04:39:22.803Z,13.81
2022-10-17T04:41:52.255Z,13.89
2022-10-17T04:44:20.743Z,13.85
2022-10-17T04:46:52.254Z,13.81
2022-10-17T04:49:20.892Z,13.77
2022-10-17T04:51:52.985Z,13.71
2022-10-17T04:54:27.097Z,13.64
2022-10-17T04:57:04.570Z,13.62
2022-10-17T04:59:32.356Z,13.66
2022-10-17T05:02:16.251Z,13.63
2022-10-17T05:04:44.089Z,13.58
2022-10-17T05:07:12.968Z,13.54
2022-10-17T05:09:40.630Z,13.49
2022-10-17T05:12:10.474Z,13.47
2022-10-17T05:14:41.311Z,13.32
2022-10-17T05:17:09.118Z,13.27
2022-10-17T05:19:37.010Z,13.12
2022-10-17T05:22:05.394Z,13.15
2022-10-17T05:24:33.018Z,13.19
2022-10-17T05:27:00.741Z,13.25
2022-10-17T05:29:29.810Z,13.29
2022-10-17T05:32:05.968Z,13.31
2022-10-17T05:34:35.335Z,13.34
2022-10-17T05:37:02.957Z,13.32
2022-10-17T05:39:31.891Z,13.33
2022-10-17T05:42:00.411Z,13.31
2022-10-17T05:44:30.391Z,13.33
2022-10-17T05:47:01.789Z,13.32
2022-10-17T05:49:44.014Z,13.31
2022-10-17T05:52:16.810Z,13.47
2022-10-17T05:54:57.011Z,13.39
2022-10-17T05:57:25.945Z,13.42
2022-10-17T05:59:55.257Z,13.38
2022-10-17T06:02:23.200Z,13.41
2022-10-17T06:04:51.246Z,13.39
2022-10-17T06:07:21.451Z,13.35
2022-10-17T06:09:49.926Z,13.37
2022-10-17T06:12:17.794Z,13.34
2022-10-17T06:14:46.537Z,13.34
2022-10-17T06:17:17.194Z,13.38
2022-10-17T06:19:45.500Z,13.40
2022-10-17T06:22:15.927Z,13.49
2022-10-17T06:24:44.219Z,13.50
2022-10-17T06:27:13.192Z,13.51
2022-10-17T06:29:42.136Z,13.54
2022-10-17T06:32:14.919Z,13.59
2022-10-17T06:34:46.935Z,13.65
2022-10-17T06:37:15.727Z,13.70
2022-10-17T06:39:44.431Z,13.72
2022-10-17T06:42:14.347Z,13.74
2022-10-17T06:44:48.489Z,13.77
2022-10-17T06:47:45.137Z,13.84
2022-10-17T06:50:30.588Z,13.83
2022-10-17T06:53:07.502Z,13.86
2022-10-17T06:56:05.990Z,13.94
2022-10-17T06:59:12.504Z,13.93
2022-10-17T07:01:48.981Z,14.00
2022-10-17T07:04:17.238Z,14.07
2022-10-17T07:06:46.305Z,14.18
2022-10-17T07:09:18.819Z,14.27
2022-10-17T07:11:46.571Z,14.31
2022-10-17T07:14:18.170Z,14.37
2022-10-17T07:16:47.086Z,14.44
2022-10-17T07:19:23.815Z,14.47
2022-10-17T07:21:53.504Z,14.52
2022-10-17T07:24:21.747Z,14.52
2022-10-17T07:26:54.923Z,14.61
2022-10-17T07:29:22.806Z,14.64
2022-10-17T07:31:59.006Z,14.73
2022-10-17T07:34:30.811Z,14.82
2022-10-17T07:37:00.104Z,14.87
2022-10-17T07:39:28.550Z,14.96
2022-10-17T07:41:56.516Z,15.02
2022-10-17T07:44:25.228Z,15.15
2022-10-17T07:46:53.901Z,15.21
2022-10-17T07:49:21.640Z,15.38
2022-10-17T07:51:50.148Z,15.41
2022-10-17T07:54:19.345Z,15.56
2022-10-17T07:56:50.857Z,15.58
2022-10-17T07:59:19.143Z,15.73
2022-10-17T08:01:46.921Z,15.74
2022-10-17T08:04:16.694Z,15.78
2022-10-17T08:06:44.394Z,15.90
2022-10-17T08:09:12.315Z,16.00
2022-10-17T08:11:43.793Z,16.14
2022-10-17T08:14:11.698Z,16.34
2022-10-17T08:16:39.329Z,16.28
2022-10-17T08:21:41.601Z,16.36
2022-10-17T08:24:09.713Z,16.40
2022-10-17T08:26:40.720Z,16.45
2022-10-17T08:29:15.246Z,16.45
2022-10-17T08:31:46.555Z,16.47
2022-10-17T08:34:16.821Z,16.43
2022-10-17T08:36:44.559Z,16.34
2022-10-17T08:39:12.208Z,16.38
2022-10-17T08:41:53.427Z,16.51
2022-10-17T08:44:36.340Z,16.48
2022-10-17T08:47:11.063Z,16.58
2022-10-17T08:49:46.771Z,16.75
2022-10-17T08:52:20.953Z,16.67
2022-10-17T08:54:50.029Z,16.69
2022-10-17T08:57:19.350Z,16.66
2022-10-17T08:59:53.020Z,16.62
2022-10-17T09:02:35.700Z,16.71
2022-10-17T09:05:34.990Z,16.74
2022-10-17T09:08:15.527Z,16.64
2022-10-17T09:10:53.706Z,16.67
2022-10-17T09:13:34.033Z,16.74
2022-10-17T09:16:19.965Z,16.78
2022-10-17T09:18:59.835Z,16.73
2022-10-17T09:21:38.356Z,16.75
2022-10-17T09:24:15.901Z,16.85
2022-10-17T09:26:45.985Z,16.94
2022-10-17T09:29:20.897Z,17.02
2022-10-17T09:31:59.702Z,17.01
2022-10-17T09:34:29.280Z,17.09
2022-10-17T09:37:00.014Z,17.17
2022-10-17T09:39:31.715Z,17.26
2022-10-17T09:42:00.995Z,17.36
2022-10-17T09:44:32.262Z,17.37
2022-10-17T09:47:26.769Z,17.58
2022-10-17T09:49:54.770Z,17.78
2022-10-17T09:52:28.534Z,17.87
2022-10-17T09:55:00.784Z,17.97
2022-10-17T09:57:28.659Z,18.10
2022-10-17T10:00:01.748Z,18.21
2022-10-17T10:02:33.510Z,18.19
2022-10-17T10:05:06.071Z,18.42
2022-10-17T10:07:37.591Z,18.55
2022-10-17T10:10:09.176Z,18.50
2022-10-17T10:12:39.242Z,18.47
2022-10-17T10:15:33.930Z,18.64
2022-10-17T10:18:03.188Z,18.72
2022-10-17T10:20:34.676Z,18.72
2022-10-17T10:23:14.228Z,18.76
2022-10-17T10:25:54.492Z,18.88
2022-10-17T10:28:26.193Z,18.91
2022-10-17T10:30:55.389Z,19.04
2022-10-17T10:33:28.242Z,19.06
2022-10-17T10:35:58.699Z,19.15
2022-10-17T10:38:26.537Z,19.16
2022-10-17T10:40:56.688Z,19.24
2022-10-17T10:43:36.516Z,19.37
2022-10-17T10:46:07.308Z,19.44
2022-10-17T10:48:37.818Z,19.49
2022-10-17T10:51:10.246Z,19.55
2022-10-17T10:53:45.213Z,19.62
2022-10-17T10:56:21.558Z,19.66
2022-10-17T10:58:55.874Z,19.71
2022-10-17T11:01:30.249Z,19.97
2022-10-17T11:04:09.092Z,19.95
2022-10-17T11:06:40.023Z,19.96
2022-10-17T11:09:20.449Z,19.97
2022-10-17T11:11:54.723Z,19.94
2022-10-17T11:14:39.421Z,20.08
2022-10-17T11:17:17.279Z,20.13
2022-10-17T11:19:53.539Z,20.30
2022-10-17T11:22:29.266Z,20.43
2022-10-17T11:25:01.510Z,20.41
2022-10-17T11:27:30.610Z,20.43
2022-10-17T11:29:59.908Z,20.50
2022-10-17T11:32:32.755Z,20.61
2022-10-17T11:35:06.482Z,20.79
2022-10-17T11:37:40.641Z,21.05
2022-10-17T11:40:19.279Z,21.31
2022-10-17T11:42:54.393Z,21.51
2022-10-17T11:45:26.693Z,21.75
2022-10-17T11:47:59.886Z,22.03
2022-10-17T11:53:22.978Z,22.31
2022-10-17T11:55:53.910Z,22.35
2022-10-17T11:58:33.308Z,22.56
2022-10-17T12:01:11.867Z,22.72
2022-10-17T12:04:09.209Z,22.85
2022-10-17T12:06:51.194Z,22.99
2022-10-17T12:09:27.397Z,22.98
2022-10-17T12:11:56.908Z,23.08
2022-10-17T12:14:42.581Z,23.04
2022-10-17T12:17:36.821Z,23.02
2022-10-17T12:20:35.815Z,22.90
2022-10-17T12:23:28.379Z,22.74
2022-10-17T12:26:01.689Z,22.55
2022-10-17T12:28:33.432Z,22.34
2022-10-17T12:31:05.640Z,22.18
2022-10-17T12:33:36.486Z,22.15
2022-10-17T12:36:47.838Z,22.03
2022-10-17T12:39:44.569Z,22.02
2022-10-17T12:42:46.178Z,22.13
2022-10-17T12:45:45.954Z,22.20
2022-10-17T12:48:13.718Z,22.18
2022-10-17T12:51:30.783Z,22.44
2022-10-17T12:53:58.410Z,22.23
2022-10-17T12:56:37.791Z,22.18
2022-10-17T12:59:10.143Z,22.20
2022-10-17T13:01:39.964Z,22.18
2022-10-17T13:04:11.581Z,22.14
2022-10-17T13:06:45.921Z,22.20
2022-10-17T13:09:23.425Z,22.32
2022-10-17T13:11:53.350Z,22.43
2022-10-17T13:14:22.832Z,22.46
2022-10-17T13:16:56.367Z,22.21
2022-10-17T13:19:26.576Z,22.25
2022-10-17T13:21:59.827Z,22.35
2022-10-17T13:24:31.931Z,21.99
2022-10-17T13:27:02.443Z,22.21
2022-10-17T13:29:32.077Z,22.00
2022-10-17T13:32:01.731Z,22.02
2022-10-17T13:34:30.307Z,21.84
2022-10-17T13:37:01.028Z,21.83
2022-10-17T13:39:45.626Z,21.80
2022-10-17T13:42:25.213Z,21.78
2022-10-17T13:44:53.365Z,21.87
2022-10-17T13:47:25.782Z,21.86
2022-10-17T13:49:55.499Z,21.82
2022-10-17T13:52:26.345Z,21.75
2022-10-17T13:54:55.110Z,21.61
2022-10-17T13:57:26.210Z,21.69
2022-10-17T13:59:57.939Z,21.74
2022-10-17T14:02:28.357Z,21.89
2022-10-17T14:05:17.286Z,21.81
2022-10-17T14:08:10.558Z,21.58
2022-10-17T14:10:41.102Z,21.53
2022-10-17T14:13:21.954Z,21.59
2022-10-17T14:15:50.428Z,21.52
2022-10-17T14:18:21.796Z,21.32
2022-10-17T14:23:43.630Z,21.01
2022-10-17T14:26:15.010Z,20.92
2022-10-17T14:28:46.365Z,20.87
2022-10-17T14:31:22.088Z,20.72
2022-10-17T14:33:51.307Z,20.50
2022-10-17T14:36:20.268Z,20.48
2022-10-17T14:38:50.826Z,20.47
2022-10-17T14:44:20.870Z,20.21
2022-10-17T14:46:52.347Z,20.18
2022-10-17T14:49:25.072Z,20.12
2022-10-17T14:52:27.183Z,20.11
2022-10-17T14:54:55.418Z,20.10
2022-10-17T14:57:29.866Z,20.07
2022-10-17T14:59:59.217Z,20.11
2022-10-17T15:02:31.106Z,20.18
2022-10-17T15:04:58.948Z,20.43
2022-10-17T15:07:26.770Z,20.46
2022-10-17T15:09:54.475Z,20.47
2022-10-17T15:12:24.709Z,20.51
2022-10-17T15:14:52.691Z,20.67
2022-10-17T15:17:25.126Z,20.78
2022-10-17T15:19:53.083Z,20.79
2022-10-17T15:22:20.775Z,20.65
2022-10-17T15:24:48.579Z,20.59
2022-10-17T15:27:18.332Z,20.52
2022-10-17T15:29:46.707Z,20.35
2022-10-17T15:32:14.554Z,20.39
2022-10-17T15:34:43.952Z,20.29
2022-10-17T15:37:18.877Z,20.15
2022-10-17T15:39:52.908Z,20.00
2022-10-17T15:42:21.568Z,19.90
2022-10-17T15:44:50.204Z,19.76
2022-10-17T15:47:25.221Z,19.61
2022-10-17T15:49:54.888Z,19.50
2022-10-17T15:52:23.367Z,19.46
2022-10-17T15:54:51.071Z,19.44
2022-10-17T15:57:21.740Z,19.39
2022-10-17T15:59:51.159Z,19.23
2022-10-17T16:02:20.517Z,19.12
2022-10-17T16:04:49.637Z,19.08
2022-10-17T16:07:18.969Z,19.05
2022-10-17T16:09:46.884Z,18.97
2022-10-17T16:12:17.818Z,18.96
2022-10-17T16:14:45.671Z,18.91
2022-10-17T16:17:15.367Z,18.77
2022-10-17T16:19:43.317Z,18.66
2022-10-17T16:22:21.758Z,18.56
2022-10-17T16:24:49.444Z,18.50
2022-10-17T16:27:17.110Z,18.43
2022-10-17T16:29:44.726Z,18.45
2022-10-17T16:32:12.375Z,18.41
2022-10-17T16:34:39.978Z,18.42
2022-10-17T16:37:07.877Z,18.47
2022-10-17T16:39:36.884Z,18.36
2022-10-17T16:42:04.702Z,18.24
2022-10-17T16:44:32.457Z,18.30
2022-10-17T16:47:00.376Z,18.23
2022-10-17T16:49:28.057Z,18.10
2022-10-17T16:51:55.744Z,18.10
2022-10-17T16:54:23.530Z,18.17
2022-10-17T16:56:52.580Z,18.19
2022-10-17T16:59:20.209Z,18.20
2022-10-17T17:01:47.906Z,18.17
2022-10-17T17:04:15.533Z,18.15
2022-10-17T17:06:43.258Z,18.09
2022-10-17T17:09:11.087Z,18.04
2022-10-17T17:11:39.551Z,18.00
2022-10-17T17:14:10.365Z,18.01
2022-10-17T17:16:38.375Z,17.99
2022-10-17T17:19:07.786Z,18.01
2022-10-17T17:21:35.930Z,18.00
2022-10-17T17:24:04.778Z,17.96
2022-10-17T17:26:35.901Z,17.98
2022-10-17T17:29:04.381Z,17.94
2022-10-17T17:31:35.321Z,17.93
2022-10-17T17:34:03.688Z,17.94
2022-10-17T17:36:33.340Z,17.86
2022-10-17T17:39:03.555Z,17.77
2022-10-17T17:41:31.643Z,17.74
2022-10-17T17:43:59.407Z,17.74
2022-10-17T17:46:27.158Z,17.74
2022-10-17T17:48:56.470Z,17.70
2022-10-17T17:51:28.349Z,17.68
2022-10-17T17:53:57.151Z,17.67
2022-10-17T17:56:26.526Z,17.68
2022-10-17T17:58:56.391Z,17.61
2022-10-17T18:01:26.260Z,17.59
2022-10-17T18:03:56.539Z,17.62
2022-10-17T18:06:24.521Z,17.67
2022-10-17T18:08:54.247Z,17.72
2022-10-17T18:11:22.301Z,17.73
2022-10-17T18:13:54.809Z,17.74
2022-10-17T18:16:22.631Z,17.71
2022-10-17T18:18:50.529Z,17.73
2022-10-17T18:21:20.107Z,17.73
2022-10-17T18:23:49.156Z,17.73
2022-10-17T18:26:17.354Z,17.73
2022-10-17T18:28:45.843Z,17.73
2022-10-17T18:31:18.841Z,17.76
2022-10-17T18:33:47.226Z,17.74
2022-10-17T18:36:16.292Z,17.80
2022-10-17T18:38:45.458Z,17.76
2022-10-17T18:41:15.104Z,17.71
2022-10-17T18:43:44.578Z,17.67
2022-10-17T18:46:15.243Z,17.64
2022-10-17T18:48:45.054Z,17.59
2022-10-17T18:51:14.097Z,17.57
2022-10-17T18:53:42.954Z,17.56
2022-10-17T18:56:13.630Z,17.57
2022-10-17T18:58:42.450Z,17.42
2022-10-17T19:01:15.397Z,17.30
2022-10-17T19:03:43.640Z,17.27
2022-10-17T19:06:12.951Z,17.23
2022-10-17T19:08:41.732Z,17.26
2022-10-17T19:11:13.148Z,17.25
2022-10-17T19:13:41.698Z,17.27
2022-10-17T19:16:10.842Z,17.24
2022-10-17T19:18:38.723Z,17.24
2022-10-17T19:21:09.353Z,17.25
2022-10-17T19:23:37.846Z,17.20
2022-10-17T19:26:07.130Z,17.20
2022-10-17T19:28:37.733Z,17.18
2022-10-17T19:31:07.609Z,17.15
2022-10-17T19:33:35.845Z,17.13
2022-10-17T19:36:06.665Z,17.14
2022-10-17T19:38:35.089Z,17.19
2022-10-17T19:41:07.121Z,17.15
2022-10-17T19:43:38.265Z,17.12
2022-10-17T19:46:08.533Z,17.17
2022-10-17T19:48:37.627Z,17.23
2022-10-17T19:51:05.908Z,17.25
2022-10-17T19:53:34.372Z,17.27
2022-10-17T19:56:02.536Z,17.30
2022-10-17T19:58:30.416Z,17.30
2022-10-17T20:01:01.696Z,17.28
2022-10-17T20:03:30.025Z,17.27
2022-10-17T20:05:57.861Z,17.22
2022-10-17T20:11:02.679Z,17.24
2022-10-17T20:13:30.511Z,17.30
2022-10-17T20:16:00.339Z,17.31
2022-10-17T20:18:28.909Z,17.30
2022-10-17T20:20:56.964Z,17.29
2022-10-17T20:23:24.776Z,17.30
2022-10-17T20:26:06.749Z,17.29
2022-10-17T20:28:41.325Z,17.23
2022-10-17T20:31:11.759Z,17.16
2022-10-17T20:33:41.330Z,17.14
2022-10-17T20:36:10.876Z,17.16
2022-10-17T20:38:39.021Z,17.18
2022-10-17T20:41:08.784Z,17.26
2022-10-17T20:43:37.407Z,17.30
2022-10-17T20:46:22.776Z,17.27
2022-10-17T20:48:54.427Z,17.23
2022-10-17T20:51:22.741Z,17.23
2022-10-17T20:53:50.804Z,17.22
2022-10-17T20:56:21.239Z,17.22
2022-10-17T20:58:53.952Z,17.20
2022-10-17T21:01:22.448Z,17.22
2022-10-17T21:03:50.623Z,17.27
2022-10-17T21:06:20.553Z,17.29
2022-10-17T21:08:49.246Z,17.17
2022-10-17T21:11:18.784Z,17.07
2022-10-17T21:13:47.338Z,16.99
2022-10-17T21:16:17.180Z,16.80
2022-10-17T21:18:45.600Z,16.71
2022-10-17T21:21:15.780Z,16.66
2022-10-17T21:23:46.010Z,16.66
2022-10-17T21:26:14.499Z,16.65
2022-10-17T21:28:43.121Z,16.65
2022-10-17T21:31:14.549Z,16.62
2022-10-17T21:33:43.553Z,16.54
2022-10-17T21:36:12.748Z,16.54
2022-10-17T21:38:41.439Z,16.53
2022-10-17T21:41:11.870Z,16.52
2022-10-17T21:43:39.579Z,16.52
2022-10-17T21:46:09.234Z,16.51
2022-10-17T21:48:37.004Z,16.53
2022-10-17T21:51:06.395Z,16.53
2022-10-17T21:53:34.965Z,16.52
2022-10-17T21:56:03.856Z,16.51
2022-10-17T21:58:33.530Z,16.51
2022-10-17T22:01:05.739Z,16.52
2022-10-17T22:03:34.969Z,16.54
2022-10-17T22:06:12.721Z,16.55
2022-10-17T22:08:46.533Z,16.48
2022-10-17T22:11:16.215Z,16.37
2022-10-17T22:13:45.281Z,16.32
2022-10-17T22:16:14.905Z,16.30
2022-10-17T22:18:43.604Z,16.33
2022-10-17T22:21:14.162Z,16.41
2022-10-17T22:23:42.107Z,16.45
2022-10-17T22:26:10.550Z,16.46
2022-10-17T22:28:39.337Z,16.45
2022-10-17T22:31:09.522Z,16.43
2022-10-17T22:33:38.583Z,16.40
2022-10-17T22:36:06.852Z,16.33
2022-10-17T22:38:34.665Z,16.32
2022-10-17T22:41:02.609Z,16.28
2022-10-17T22:43:30.600Z,16.26
2022-10-17T22:45:59.362Z,16.26
2022-10-17T22:48:29.661Z,16.31
2022-10-17T22:50:58.776Z,16.24
2022-10-17T22:53:27.386Z,16.20
2022-10-17T22:55:56.674Z,16.24
2022-10-17T22:58:25.264Z,16.17
2022-10-17T23:00:54.002Z,16.24
2022-10-17T23:03:22.567Z,16.27
2022-10-17T23:05:52.517Z,16.32
2022-10-17T23:08:20.591Z,16.18
2022-10-17T23:10:48.932Z,16.14
2022-10-17T23:13:18.631Z,16.13
2022-10-17T23:15:46.437Z,16.16
2022-10-17T23:18:14.469Z,16.14
2022-10-17T23:20:42.145Z,16.09
2022-10-17T23:23:11.158Z,16.08
2022-10-17T23:25:38.837Z,16.08
2022-10-17T23:28:08.043Z,16.09
2022-10-17T23:30:36.790Z,16.14
2022-10-17T23:33:04.786Z,16.16
2022-10-17T23:35:33.351Z,16.16
2022-10-17T23:38:01.138Z,16.12
2022-10-17T23:40:30.603Z,16.19
2022-10-17T23:42:58.263Z,16.17
2022-10-17T23:45:25.992Z,16.18
2022-10-17T23:47:54.022Z,16.30
2022-10-17T23:50:21.876Z,16.32
2022-10-17T23:52:49.683Z,16.36
2022-10-17T23:55:17.499Z,16.28
2022-10-17T23:57:46.733Z,16.28
